RYR70ED LIEA-LIMC
Flight info
| Callsign | RYR70ED |
|---|---|
| Flight time | N/A |
| Altitude | 30000 |
| Route | GOPAT L978 BEBEV DCT OKBON DCT RAPUR DCT TORTU DCT ANAKI P860 DEVOX |
| Aircraft | B738/M-SDE2E3FGHIRWXY/LB1 |
Departure
| Time | 2026-05-08 13:47 |
|---|---|
| Airport | Alghero-Fertilia Airport (LIEA) |
Arrival
| Time | N/A |
|---|---|
| Airport | Milan Malpensa International Airport (LIMC) |
| Time | Latitude | Longitude | Altitude | Speed | Heading |
|---|---|---|---|---|---|
| 2026-05-08 13:17 | 40.63004 | 8.29419 | 82 ft | 0 kts | 115° |
| 2026-05-08 13:40 | 40.63005 | 8.29404 | 85 ft | 2 kts | 85° |
| 2026-05-08 13:40 | 40.63009 | 8.29384 | 83 ft | 2 kts | 131° |
| 2026-05-08 13:40 | 40.63021 | 8.29369 | 85 ft | 2 kts | 146° |
| 2026-05-08 13:40 | 40.63036 | 8.29361 | 84 ft | 2 kts | 183° |
| 2026-05-08 13:41 | 40.63044 | 8.29363 | 83 ft | 0 kts | 199° |
| 2026-05-08 13:42 | 40.63021 | 8.29352 | 85 ft | 6 kts | 201° |
| 2026-05-08 13:43 | 40.62970 | 8.29320 | 81 ft | 10 kts | 209° |
| 2026-05-08 13:43 | 40.62892 | 8.29272 | 76 ft | 14 kts | 217° |
| 2026-05-08 13:43 | 40.62842 | 8.29143 | 69 ft | 18 kts | 249° |
| 2026-05-08 13:43 | 40.62775 | 8.29063 | 74 ft | 13 kts | 204° |
| 2026-05-08 13:44 | 40.62694 | 8.29013 | 74 ft | 13 kts | 205° |
| 2026-05-08 13:44 | 40.62617 | 8.28960 | 67 ft | 12 kts | 218° |
| 2026-05-08 13:44 | 40.62595 | 8.28885 | 75 ft | 0 kts | 290° |
| 2026-05-08 13:45 | 40.62595 | 8.28884 | 75 ft | 0 kts | 291° |
| 2026-05-08 13:45 | 40.62600 | 8.28870 | 70 ft | 4 kts | 302° |
| 2026-05-08 13:46 | 40.62663 | 8.28835 | 72 ft | 15 kts | 355° |
| 2026-05-08 13:46 | 40.62800 | 8.28834 | 75 ft | 24 kts | 10° |
| 2026-05-08 13:46 | 40.63164 | 8.29045 | 82 ft | 97 kts | 24° |
| 2026-05-08 13:46 | 40.64000 | 8.29546 | 111 ft | 163 kts | 22° |
| 2026-05-08 13:47 | 40.65051 | 8.30199 | 874 ft | 164 kts | 24° |
| 2026-05-08 13:47 | 40.66076 | 8.30831 | 1842 ft | 167 kts | 25° |
| 2026-05-08 13:47 | 40.67182 | 8.31499 | 2524 ft | 186 kts | 24° |
| 2026-05-08 13:47 | 40.68441 | 8.32248 | 3068 ft | 210 kts | 24° |
| 2026-05-08 13:48 | 40.69847 | 8.33078 | 3476 ft | 231 kts | 24° |
| 2026-05-08 13:48 | 40.71380 | 8.33996 | 3837 ft | 257 kts | 25° |
| 2026-05-08 13:48 | 40.73040 | 8.34995 | 4695 ft | 264 kts | 25° |
| 2026-05-08 13:48 | 40.74716 | 8.36004 | 5747 ft | 265 kts | 26° |
| 2026-05-08 13:49 | 40.76407 | 8.37023 | 6686 ft | 271 kts | 25° |
| 2026-05-08 13:49 | 40.78139 | 8.38067 | 7555 ft | 276 kts | 25° |
| 2026-05-08 13:49 | 40.79972 | 8.38878 | 8441 ft | 283 kts | 8° |
| 2026-05-08 13:49 | 40.81948 | 8.39078 | 9367 ft | 288 kts | 4° |
| 2026-05-08 13:50 | 40.83958 | 8.39232 | 10281 ft | 290 kts | 3° |
| 2026-05-08 13:50 | 40.86039 | 8.39412 | 10701 ft | 313 kts | 3° |
| 2026-05-08 13:50 | 40.88295 | 8.39630 | 11050 ft | 334 kts | 3° |
| 2026-05-08 13:50 | 40.90639 | 8.39870 | 11786 ft | 340 kts | 3° |
| 2026-05-08 13:51 | 40.93012 | 8.40119 | 12639 ft | 344 kts | 3° |
| 2026-05-08 13:51 | 40.95415 | 8.40372 | 13453 ft | 349 kts | 2° |
| 2026-05-08 13:51 | 40.97861 | 8.40629 | 14201 ft | 355 kts | 2° |
| 2026-05-08 13:51 | 41.00327 | 8.40890 | 14941 ft | 359 kts | 1° |
| 2026-05-08 13:52 | 41.02826 | 8.41154 | 15696 ft | 362 kts | 1° |
| 2026-05-08 13:52 | 41.05350 | 8.41420 | 16462 ft | 365 kts | 1° |
| 2026-05-08 13:52 | 41.07897 | 8.41690 | 17220 ft | 369 kts | 1° |
| 2026-05-08 13:52 | 41.10470 | 8.41962 | 17939 ft | 373 kts | 1° |
| 2026-05-08 13:53 | 41.13074 | 8.42238 | 18591 ft | 378 kts | 0° |
| 2026-05-08 13:53 | 41.15675 | 8.42514 | 19183 ft | 382 kts | 0° |
| 2026-05-08 13:53 | 41.17474 | 8.42704 | 19588 ft | 385 kts | 0° |
| 2026-05-08 13:53 | 41.21036 | 8.43083 | 20378 ft | 391 kts | 0° |
| 2026-05-08 13:54 | 41.23758 | 8.43374 | 20963 ft | 395 kts | 0° |
| 2026-05-08 13:54 | 41.26512 | 8.43669 | 21559 ft | 399 kts | 0° |
| 2026-05-08 13:54 | 41.29289 | 8.43967 | 22140 ft | 403 kts | 360° |
| 2026-05-08 13:54 | 41.32097 | 8.44268 | 22697 ft | 407 kts | 360° |
| 2026-05-08 13:55 | 41.34932 | 8.44503 | 23237 ft | 409 kts | 356° |
| 2026-05-08 13:55 | 41.37787 | 8.44542 | 23755 ft | 412 kts | 354° |
| 2026-05-08 13:55 | 41.43532 | 8.44456 | 24887 ft | 411 kts | 354° |
| 2026-05-08 13:56 | 41.46378 | 8.44424 | 25612 ft | 407 kts | 354° |
| 2026-05-08 13:56 | 41.49190 | 8.44409 | 26399 ft | 401 kts | 353° |
| 2026-05-08 13:56 | 41.51970 | 8.44404 | 27079 ft | 399 kts | 353° |
| 2026-05-08 13:56 | 41.54742 | 8.44401 | 27659 ft | 398 kts | 353° |
| 2026-05-08 13:57 | 41.57510 | 8.44400 | 28253 ft | 398 kts | 353° |
| 2026-05-08 13:57 | 41.60264 | 8.44401 | 28919 ft | 395 kts | 353° |
| 2026-05-08 13:57 | 41.63002 | 8.44402 | 29580 ft | 392 kts | 353° |
| 2026-05-08 13:57 | 41.65731 | 8.44404 | 30006 ft | 394 kts | 353° |
| 2026-05-08 13:58 | 41.68488 | 8.44412 | 30004 ft | 397 kts | 352° |
| 2026-05-08 13:58 | 41.73052 | 8.44439 | 29994 ft | 391 kts | 352° |